createdAt,value
2023-01-23T00:01:37.227Z,11.55
2023-01-23T00:04:06.286Z,10.38
2023-01-23T00:06:34.762Z,11.57
2023-01-23T00:09:03.127Z,11.45
2023-01-23T00:11:32.124Z,11.18
2023-01-23T00:14:02.141Z,12.68
2023-01-23T00:16:33.882Z,12.95
2023-01-23T00:19:02.269Z,13.23
2023-01-23T00:21:31.241Z,12.40
2023-01-23T00:24:01.500Z,10.63
2023-01-23T00:26:32.933Z,13.40
2023-01-23T00:29:01.386Z,11.65
2023-01-23T00:31:33.936Z,10.75
2023-01-23T00:34:04.392Z,12.40
2023-01-23T00:36:35.946Z,12.60
2023-01-23T00:39:07.676Z,12.27
2023-01-23T00:41:36.691Z,11.40
2023-01-23T00:44:06.036Z,10.27
2023-01-23T00:46:35.844Z,12.03
2023-01-23T00:49:04.688Z,14.45
2023-01-23T00:51:33.750Z,13.93
2023-01-23T00:54:02.872Z,14.70
2023-01-23T00:56:31.379Z,15.57
2023-01-23T00:58:59.702Z,13.88
2023-01-23T01:01:29.085Z,13.75
2023-01-23T01:03:59.023Z,12.32
2023-01-23T01:06:27.505Z,14.75
2023-01-23T01:08:58.340Z,14.73
2023-01-23T01:11:27.013Z,15.13
2023-01-23T01:13:55.364Z,13.37
2023-01-23T01:16:24.386Z,14.13
2023-01-23T01:18:52.955Z,14.20
2023-01-23T01:21:22.903Z,14.70
2023-01-23T01:23:51.301Z,12.73
2023-01-23T01:26:19.741Z,13.95
2023-01-23T01:28:49.898Z,12.55
2023-01-23T01:31:18.382Z,13.95
2023-01-23T01:33:46.803Z,12.00
2023-01-23T01:36:17.458Z,13.38
2023-01-23T01:38:49.552Z,16.75
2023-01-23T01:41:18.938Z,14.40
2023-01-23T01:43:47.563Z,14.23
2023-01-23T01:46:22.868Z,13.57
2023-01-23T01:49:01.847Z,13.90
2023-01-23T01:51:34.338Z,14.18
2023-01-23T01:54:10.363Z,13.10
2023-01-23T01:56:44.673Z,15.15
2023-01-23T01:59:14.324Z,15.48
2023-01-23T02:01:47.169Z,13.70
2023-01-23T02:04:16.744Z,16.58
2023-01-23T02:06:45.689Z,12.55
2023-01-23T02:09:21.385Z,14.93
2023-01-23T02:11:50.699Z,14.02
2023-01-23T02:14:21.467Z,14.73
2023-01-23T02:16:52.939Z,14.65
2023-01-23T02:19:35.233Z,13.70
2023-01-23T02:22:11.431Z,15.90
2023-01-23T02:24:47.332Z,15.82
2023-01-23T02:27:17.161Z,15.57
2023-01-23T02:29:48.361Z,14.10
2023-01-23T02:32:19.671Z,14.55
2023-01-23T02:34:49.499Z,15.82
2023-01-23T02:37:19.804Z,14.85
2023-01-23T02:39:48.838Z,13.90
2023-01-23T02:42:22.911Z,15.98
2023-01-23T02:44:56.036Z,14.93
2023-01-23T02:47:25.412Z,15.35
2023-01-23T02:49:57.647Z,14.70
2023-01-23T02:52:25.967Z,16.27
2023-01-23T02:54:54.161Z,16.07
2023-01-23T02:57:23.803Z,16.00
2023-01-23T03:00:09.689Z,13.85
2023-01-23T03:02:39.395Z,13.85
2023-01-23T03:05:11.511Z,15.52
2023-01-23T03:07:39.772Z,16.70
2023-01-23T03:10:08.795Z,14.70
2023-01-23T03:12:42.490Z,15.23
2023-01-23T03:15:12.426Z,17.88
2023-01-23T03:17:40.788Z,13.80
2023-01-23T03:20:09.935Z,17.20
2023-01-23T03:22:38.306Z,18.55
2023-01-23T03:25:10.130Z,16.27
2023-01-23T03:27:39.871Z,16.43
2023-01-23T03:30:15.690Z,17.77
2023-01-23T03:32:45.057Z,15.27
2023-01-23T03:35:16.609Z,16.73
2023-01-23T03:37:46.369Z,16.40
2023-01-23T03:40:36.099Z,15.50
2023-01-23T03:43:07.510Z,16.40
2023-01-23T03:45:39.170Z,13.68
2023-01-23T03:48:08.372Z,16.25
2023-01-23T03:50:37.310Z,16.80
2023-01-23T03:53:05.617Z,14.85
2023-01-23T03:55:33.781Z,16.02
2023-01-23T03:58:02.094Z,14.80
2023-01-23T04:00:33.943Z,15.80
2023-01-23T04:03:06.722Z,16.33
2023-01-23T04:05:35.791Z,16.92
2023-01-23T04:08:04.550Z,15.60
2023-01-23T04:10:32.999Z,14.93
2023-01-23T04:13:05.789Z,15.27
2023-01-23T04:15:35.589Z,18.00
2023-01-23T04:18:07.436Z,17.30
2023-01-23T04:20:35.738Z,18.52
2023-01-23T04:23:04.386Z,15.35
2023-01-23T04:25:32.629Z,14.63
2023-01-23T04:28:00.836Z,13.33
2023-01-23T04:30:29.455Z,17.95
2023-01-23T04:33:04.068Z,14.82
2023-01-23T04:35:35.531Z,17.98
2023-01-23T04:38:04.253Z,16.13
2023-01-23T04:40:32.476Z,13.95
2023-01-23T04:43:01.856Z,14.15
2023-01-23T04:45:37.081Z,14.85
2023-01-23T04:48:32.998Z,16.02
2023-01-23T04:51:01.324Z,18.83
2023-01-23T04:53:29.642Z,15.60
2023-01-23T04:56:02.297Z,14.80
2023-01-23T04:58:31.349Z,14.30
2023-01-23T05:01:06.865Z,16.20
2023-01-23T05:03:38.492Z,17.58
2023-01-23T05:06:07.557Z,17.73
2023-01-23T05:08:36.545Z,15.27
2023-01-23T05:11:27.611Z,17.90
2023-01-23T05:13:56.274Z,17.90
2023-01-23T05:16:25.731Z,16.73
2023-01-23T05:19:15.483Z,15.93
2023-01-23T05:21:44.550Z,15.73
2023-01-23T05:24:21.817Z,16.63
2023-01-23T05:26:51.077Z,14.90
2023-01-23T05:29:20.899Z,14.90
2023-01-23T05:31:57.994Z,15.00
2023-01-23T05:34:40.479Z,16.83
2023-01-23T05:37:17.812Z,15.00
2023-01-23T05:39:51.027Z,17.73
2023-01-23T05:42:20.611Z,15.40
2023-01-23T05:45:04.787Z,14.90
2023-01-23T05:47:40.407Z,14.52
2023-01-23T05:50:16.503Z,16.33
2023-01-23T05:52:45.786Z,15.90
2023-01-23T05:55:14.690Z,17.48
2023-01-23T05:57:43.218Z,15.35
2023-01-23T06:00:19.244Z,16.17
2023-01-23T06:03:07.654Z,17.35
2023-01-23T06:05:55.923Z,18.52
2023-01-23T06:08:24.303Z,16.05
2023-01-23T06:10:52.872Z,14.15
2023-01-23T06:13:21.698Z,13.57
2023-01-23T06:15:49.995Z,15.80
2023-01-23T06:18:19.424Z,16.52
2023-01-23T06:20:47.839Z,13.30
2023-01-23T06:23:17.721Z,16.25
2023-01-23T06:25:45.994Z,15.80
2023-01-23T06:28:14.308Z,15.85
2023-01-23T06:30:43.849Z,14.93
2023-01-23T06:33:23.457Z,12.65
2023-01-23T06:35:59.198Z,16.90
2023-01-23T06:38:31.730Z,12.40
2023-01-23T06:41:01.099Z,13.10
2023-01-23T06:43:34.101Z,14.50
2023-01-23T06:46:02.863Z,15.00
2023-01-23T06:48:32.396Z,13.63
2023-01-23T06:51:01.606Z,13.50
2023-01-23T06:53:33.057Z,14.65
2023-01-23T06:56:02.647Z,13.63
2023-01-23T06:58:35.668Z,13.88
2023-01-23T07:01:09.859Z,13.43
2023-01-23T07:03:56.439Z,12.73
2023-01-23T07:06:25.101Z,12.70
2023-01-23T07:08:54.768Z,15.63
2023-01-23T07:11:23.196Z,12.77
2023-01-23T07:13:51.539Z,13.02
2023-01-23T07:16:20.191Z,11.40
2023-01-23T07:18:48.589Z,12.30
2023-01-23T07:21:16.871Z,12.90
2023-01-23T07:23:45.149Z,14.10
2023-01-23T07:26:14.762Z,13.30
2023-01-23T07:28:43.757Z,11.80
2023-01-23T07:31:12.135Z,13.68
2023-01-23T07:33:40.435Z,14.00
2023-01-23T07:36:09.760Z,12.13
2023-01-23T07:38:38.009Z,13.63
2023-01-23T07:41:06.601Z,16.00
2023-01-23T07:43:36.176Z,16.80
2023-01-23T07:46:04.730Z,13.45
2023-01-23T07:48:32.956Z,14.02
2023-01-23T07:51:04.191Z,12.75
2023-01-23T07:53:32.566Z,15.68
2023-01-23T07:56:03.021Z,10.32
2023-01-23T07:58:31.390Z,15.10
2023-01-23T08:01:01.390Z,17.88
2023-01-23T08:03:30.150Z,12.45
2023-01-23T08:05:59.718Z,13.52
2023-01-23T08:08:28.072Z,13.02
2023-01-23T08:10:56.256Z,13.73
2023-01-23T08:13:24.518Z,12.48
2023-01-23T08:20:02.355Z,12.15
2023-01-23T08:22:30.860Z,12.07
2023-01-23T08:24:59.070Z,11.38
2023-01-23T08:27:27.475Z,12.40
2023-01-23T08:29:55.702Z,12.80
2023-01-23T08:32:23.992Z,14.13
2023-01-23T08:34:52.222Z,16.48
2023-01-23T08:37:21.906Z,13.88
2023-01-23T08:39:50.154Z,12.70
2023-01-23T08:42:18.368Z,11.10
2023-01-23T08:44:46.544Z,13.67
2023-01-23T08:47:14.751Z,11.50
2023-01-23T08:49:42.950Z,17.00
2023-01-23T08:52:11.190Z,10.70
2023-01-23T08:54:40.931Z,12.45
2023-01-23T08:57:09.134Z,12.38
2023-01-23T08:59:37.426Z,10.25
2023-01-23T09:02:05.762Z,11.13
2023-01-23T09:04:34.022Z,11.90
2023-01-23T09:07:02.187Z,10.70
2023-01-23T09:09:30.791Z,11.30
2023-01-23T09:12:00.344Z,11.13
2023-01-23T09:14:28.537Z,10.70
2023-01-23T09:16:56.858Z,9.40
2023-01-23T09:19:25.114Z,9.73
2023-01-23T09:21:57.013Z,10.43
2023-01-23T09:24:25.267Z,9.93
2023-01-23T09:26:53.579Z,10.30
2023-01-23T09:29:23.199Z,8.63
2023-01-23T09:31:51.572Z,8.23
2023-01-23T09:34:20.265Z,10.20
2023-01-23T09:36:48.632Z,11.97
2023-01-23T09:39:17.479Z,9.77
2023-01-23T09:41:47.624Z,10.03
2023-01-23T09:44:21.501Z,10.10
2023-01-23T09:46:54.319Z,10.10
2023-01-23T09:49:28.166Z,8.77
2023-01-23T09:51:59.421Z,9.05
2023-01-23T09:54:38.083Z,9.13
2023-01-23T09:57:14.239Z,8.88
2023-01-23T09:59:58.605Z,9.20
2023-01-23T10:02:30.182Z,10.43
2023-01-23T10:05:02.547Z,8.23
2023-01-23T10:07:52.034Z,8.80
2023-01-23T10:10:48.352Z,8.43
2023-01-23T10:13:19.922Z,9.38
2023-01-23T10:16:49.184Z,9.63
2023-01-23T10:19:35.502Z,7.97
2023-01-23T10:22:22.277Z,8.85
2023-01-23T10:24:53.178Z,9.50
2023-01-23T10:27:23.771Z,10.10
2023-01-23T10:29:59.982Z,10.23
2023-01-23T10:32:30.599Z,8.88
2023-01-23T10:35:06.623Z,10.60
2023-01-23T10:37:43.824Z,11.40
2023-01-23T10:40:16.467Z,10.85
2023-01-23T10:42:44.943Z,8.90
2023-01-23T10:45:20.455Z,12.10
2023-01-23T10:47:55.199Z,9.27
2023-01-23T10:50:37.593Z,10.10
2023-01-23T10:53:20.009Z,10.10
2023-01-23T10:55:49.766Z,10.10
2023-01-23T10:58:30.736Z,14.85
2023-01-23T11:00:59.382Z,13.50
2023-01-23T11:03:30.965Z,12.57
2023-01-23T11:06:05.802Z,10.65
2023-01-23T11:08:37.205Z,9.80
2023-01-23T11:11:24.956Z,9.52
2023-01-23T11:14:06.677Z,9.38
2023-01-23T11:16:35.700Z,10.60
2023-01-23T11:19:17.428Z,11.45
2023-01-23T11:21:55.918Z,10.45
2023-01-23T11:24:39.686Z,10.73
2023-01-23T11:27:20.273Z,11.13
2023-01-23T11:30:02.886Z,11.20
2023-01-23T11:32:35.032Z,11.13
2023-01-23T11:35:14.109Z,9.20
2023-01-23T11:37:44.052Z,10.50
2023-01-23T11:40:15.124Z,11.43
2023-01-23T11:42:44.498Z,11.30
2023-01-23T11:45:29.609Z,12.10
2023-01-23T11:48:28.413Z,10.50
2023-01-23T11:51:03.092Z,11.27
2023-01-23T11:53:43.259Z,10.00
2023-01-23T11:56:39.054Z,11.05
2023-01-23T11:59:52.843Z,11.13
2023-01-23T12:02:43.343Z,9.98
2023-01-23T12:05:38.860Z,12.10
2023-01-23T12:08:19.412Z,12.90
2023-01-23T12:11:00.738Z,12.05
2023-01-23T12:13:57.194Z,13.32
2023-01-23T12:16:34.802Z,11.30
2023-01-23T12:19:13.501Z,13.75
2023-01-23T12:21:50.792Z,9.82
2023-01-23T12:24:32.051Z,10.80
2023-01-23T12:27:08.275Z,10.90
2023-01-23T12:30:07.338Z,11.90
2023-01-23T12:32:53.855Z,12.23
2023-01-23T12:35:34.560Z,12.05
2023-01-23T12:38:19.995Z,12.35
2023-01-23T12:40:52.415Z,11.77
2023-01-23T12:43:29.378Z,11.68
2023-01-23T12:46:02.297Z,11.63
2023-01-23T12:48:35.701Z,11.48
2023-01-23T12:51:08.896Z,13.65
2023-01-23T12:53:40.520Z,12.85
2023-01-23T12:56:12.262Z,12.05
2023-01-23T12:58:50.711Z,12.68
2023-01-23T13:01:33.193Z,11.82
2023-01-23T13:04:16.139Z,14.63
2023-01-23T13:06:57.211Z,13.88
2023-01-23T13:09:41.856Z,14.73
2023-01-23T13:12:21.710Z,11.10
2023-01-23T13:15:14.324Z,13.00
2023-01-23T13:17:46.045Z,13.45
2023-01-23T13:20:44.114Z,14.05
2023-01-23T13:23:27.614Z,14.93
2023-01-23T13:26:29.197Z,14.57
2023-01-23T13:29:01.566Z,14.63
2023-01-23T13:31:45.414Z,12.07
2023-01-23T13:34:39.231Z,12.65
2023-01-23T13:37:46.571Z,10.43
2023-01-23T13:40:17.557Z,14.43
2023-01-23T13:42:46.169Z,11.75
2023-01-23T13:45:36.698Z,13.00
2023-01-23T14:20:40.080Z,14.88
2023-01-23T14:23:21.760Z,14.23
2023-01-23T14:25:51.448Z,13.68
2023-01-23T14:28:20.385Z,15.80
2023-01-23T14:30:56.132Z,14.77
2023-01-23T14:33:25.162Z,13.00
2023-01-23T14:35:55.303Z,14.82
2023-01-23T14:38:30.375Z,14.98
2023-01-23T14:41:00.776Z,15.48
2023-01-23T14:43:33.085Z,15.00
2023-01-23T14:46:04.793Z,14.07
2023-01-23T14:48:38.060Z,14.27
2023-01-23T14:51:17.404Z,15.95
2023-01-23T14:53:56.632Z,13.60
2023-01-23T14:56:30.734Z,13.30
2023-01-23T14:59:03.050Z,15.23
2023-01-23T15:01:31.494Z,17.27
2023-01-23T15:04:03.538Z,15.05
2023-01-23T15:06:34.738Z,15.25
2023-01-23T15:09:09.697Z,13.63
2023-01-23T15:11:39.475Z,13.65
2023-01-23T15:14:07.962Z,13.90
2023-01-23T15:16:38.271Z,11.87
2023-01-23T15:19:09.076Z,17.05
2023-01-23T15:21:41.969Z,13.13
2023-01-23T15:24:29.738Z,13.00
2023-01-23T15:27:05.956Z,13.07
2023-01-23T15:29:34.871Z,13.40
2023-01-23T15:32:16.808Z,15.93
2023-01-23T15:34:55.132Z,13.27
2023-01-23T15:37:25.969Z,12.25
2023-01-23T15:39:56.947Z,14.00
2023-01-23T15:42:29.716Z,14.00
2023-01-23T15:45:03.823Z,15.20
2023-01-23T15:47:33.153Z,15.35
2023-01-23T15:50:02.999Z,14.82
2023-01-23T15:52:45.996Z,12.02
2023-01-23T15:55:15.548Z,11.90
2023-01-23T15:57:45.245Z,14.93
2023-01-23T16:00:16.059Z,12.10
2023-01-23T16:02:55.717Z,16.48
2023-01-23T16:05:27.420Z,13.75
2023-01-23T16:07:57.081Z,16.90
2023-01-23T16:10:27.696Z,13.20
2023-01-23T16:12:58.621Z,12.75
2023-01-23T16:15:29.341Z,17.92
2023-01-23T16:17:58.089Z,13.43
2023-01-23T16:20:29.757Z,15.65
2023-01-23T16:23:08.482Z,14.15
2023-01-23T16:25:45.650Z,15.05
2023-01-23T16:28:16.586Z,15.15
2023-01-23T16:30:45.637Z,16.97
2023-01-23T16:33:14.376Z,14.73
2023-01-23T16:35:43.128Z,17.70
2023-01-23T16:38:20.521Z,14.73
2023-01-23T16:40:50.857Z,13.93
2023-01-23T16:43:20.757Z,14.05
2023-01-23T16:45:49.110Z,14.55
2023-01-23T16:48:26.419Z,14.43
2023-01-23T16:50:59.991Z,17.50
2023-01-23T16:53:31.142Z,16.75
2023-01-23T16:56:01.502Z,13.70
2023-01-23T16:58:35.786Z,14.40
2023-01-23T17:01:08.381Z,15.23
2023-01-23T17:03:40.718Z,13.82
2023-01-23T17:06:17.453Z,14.30
2023-01-23T17:08:45.811Z,15.77
2023-01-23T17:11:20.959Z,14.90
2023-01-23T17:13:57.034Z,14.35
2023-01-23T17:16:27.777Z,17.33
2023-01-23T17:18:58.146Z,15.77
2023-01-23T17:21:32.608Z,14.82
2023-01-23T17:24:01.097Z,13.82
2023-01-23T17:26:29.474Z,14.13
2023-01-23T17:28:59.327Z,15.80
2023-01-23T17:31:29.755Z,13.25
2023-01-23T17:33:58.244Z,10.43
2023-01-23T17:36:26.854Z,13.30
2023-01-23T17:38:58.582Z,10.45
2023-01-23T17:41:26.980Z,10.73
2023-01-23T17:43:55.297Z,10.68
2023-01-23T17:46:28.000Z,9.90
2023-01-23T17:48:57.215Z,6.85
2023-01-23T17:51:27.075Z,8.65
2023-01-23T17:53:56.186Z,9.90
2023-01-23T17:56:24.585Z,11.00
2023-01-23T17:58:53.378Z,9.45
2023-01-23T18:08:00.335Z,11.98
2023-01-23T18:10:30.183Z,9.80
2023-01-23T18:13:17.613Z,10.48
2023-01-23T18:15:57.924Z,11.68
2023-01-23T18:18:31.742Z,12.85
2023-01-23T18:21:01.829Z,11.65
2023-01-23T18:23:37.120Z,11.07
2023-01-23T18:26:22.686Z,10.83
2023-01-23T18:28:58.463Z,12.38
2023-01-23T18:31:36.467Z,14.18
2023-01-23T18:34:17.946Z,11.40
2023-01-23T18:36:57.328Z,12.05
2023-01-23T18:39:40.403Z,11.60
2023-01-23T18:42:17.432Z,12.80
2023-01-23T18:44:52.544Z,14.38
2023-01-23T18:47:21.323Z,11.40
2023-01-23T18:49:51.646Z,11.90
2023-01-23T18:52:25.177Z,12.83
2023-01-23T18:55:00.296Z,11.70
2023-01-23T18:57:51.095Z,14.82
2023-01-23T19:00:24.643Z,10.88
2023-01-23T19:02:57.193Z,11.50
2023-01-23T19:05:32.665Z,11.98
2023-01-23T19:08:02.403Z,12.05
2023-01-23T19:10:40.086Z,13.13
2023-01-23T19:13:21.064Z,11.65
2023-01-23T19:15:58.987Z,13.13
2023-01-23T19:18:46.025Z,12.88
2023-01-23T19:21:20.401Z,16.77
2023-01-23T19:23:56.619Z,13.73
2023-01-23T19:26:27.804Z,17.30
2023-01-23T19:28:57.473Z,16.17
2023-01-23T19:31:29.387Z,15.95
2023-01-23T19:33:58.842Z,15.80
2023-01-23T19:36:30.467Z,15.40
2023-01-23T19:39:02.978Z,16.33
2023-01-23T19:41:40.055Z,18.90
2023-01-23T19:44:11.416Z,18.08
2023-01-23T19:46:39.843Z,16.70
2023-01-23T19:49:08.424Z,18.20
2023-01-23T19:51:39.179Z,20.63
2023-01-23T19:54:10.962Z,21.55
2023-01-23T19:56:40.002Z,18.50
2023-01-23T19:59:08.535Z,20.73
2023-01-23T20:01:40.275Z,14.63
2023-01-23T20:04:13.162Z,18.38
2023-01-23T20:06:45.237Z,17.40
2023-01-23T20:09:15.431Z,19.45
2023-01-23T20:11:44.047Z,19.15
2023-01-23T20:14:12.865Z,15.35
2023-01-23T20:16:43.587Z,17.30
2023-01-23T20:19:14.437Z,17.73
2023-01-23T20:21:45.130Z,19.70
2023-01-23T20:24:14.808Z,18.25
2023-01-23T20:26:43.260Z,17.20
2023-01-23T20:29:12.904Z,18.27
2023-01-23T20:31:41.234Z,19.25
2023-01-23T20:34:09.748Z,15.60
2023-01-23T20:36:38.040Z,17.90
2023-01-23T20:39:07.831Z,19.10
2023-01-23T20:41:36.236Z,17.70
2023-01-23T20:44:04.565Z,17.50
2023-01-23T20:46:33.090Z,15.85
2023-01-23T20:49:02.313Z,20.60
2023-01-23T20:51:31.387Z,16.65
2023-01-23T20:54:00.090Z,17.25
2023-01-23T20:56:29.856Z,16.45
2023-01-23T20:59:15.914Z,18.23
2023-01-23T21:02:02.300Z,20.00
2023-01-23T21:04:32.887Z,19.00
2023-01-23T21:07:02.143Z,18.02
2023-01-23T21:09:30.998Z,20.73
2023-01-23T21:12:01.073Z,17.40
2023-01-23T21:14:30.324Z,18.85
2023-01-23T21:16:59.372Z,16.70
2023-01-23T21:19:27.702Z,15.05
2023-01-23T21:21:55.988Z,19.50
2023-01-23T21:24:24.457Z,17.17
2023-01-23T21:26:52.984Z,18.77
2023-01-23T21:29:22.649Z,18.80
2023-01-23T21:31:51.755Z,21.05
2023-01-23T21:34:20.016Z,19.17
2023-01-23T21:36:48.338Z,16.42
2023-01-23T21:39:17.187Z,18.73
2023-01-23T21:41:45.822Z,16.17
2023-01-23T21:44:14.494Z,18.23
2023-01-23T21:46:44.205Z,17.10
2023-01-23T21:49:12.480Z,14.65
2023-01-23T21:51:40.751Z,17.48
2023-01-23T21:54:09.961Z,17.00
2023-01-23T21:56:38.498Z,16.88
2023-01-23T21:59:07.030Z,15.50
2023-01-23T22:01:42.165Z,16.50
2023-01-23T22:04:13.382Z,14.80
2023-01-23T22:06:43.508Z,15.07
2023-01-23T22:09:16.163Z,13.68
2023-01-23T22:11:44.982Z,15.82
2023-01-23T22:14:13.465Z,17.98
2023-01-23T22:16:50.533Z,17.13
2023-01-23T22:19:25.101Z,14.68
2023-01-23T22:21:54.808Z,13.75
2023-01-23T22:24:23.291Z,13.98
2023-01-23T22:26:51.659Z,14.70
2023-01-23T22:29:19.885Z,15.32
2023-01-23T22:31:48.381Z,14.60
2023-01-23T22:34:16.859Z,13.13
2023-01-23T22:36:46.530Z,16.40
2023-01-23T22:39:16.935Z,13.00
2023-01-23T22:41:45.986Z,10.30
2023-01-23T22:44:14.970Z,10.82
2023-01-23T22:46:43.573Z,9.65
2023-01-23T22:49:11.937Z,10.50
2023-01-23T22:51:40.344Z,12.00
2023-01-23T22:54:10.038Z,12.18
2023-01-23T22:56:38.828Z,11.55
2023-01-23T22:59:07.299Z,11.50
2023-01-23T23:01:36.088Z,13.13
2023-01-23T23:04:05.106Z,11.40
2023-01-23T23:06:33.400Z,10.57
2023-01-23T23:09:01.770Z,11.20
2023-01-23T23:11:31.483Z,10.50
2023-01-23T23:13:59.970Z,10.90
2023-01-23T23:16:31.229Z,9.07
2023-01-23T23:19:01.578Z,9.55
2023-01-23T23:21:33.162Z,7.15
2023-01-23T23:24:02.893Z,8.40
2023-01-23T23:26:32.973Z,9.50
2023-01-23T23:29:02.177Z,10.43
2023-01-23T23:31:31.012Z,8.68
2023-01-23T23:33:59.876Z,10.03
2023-01-23T23:36:28.232Z,10.27
2023-01-23T23:38:56.721Z,9.15
2023-01-23T23:41:25.111Z,8.30
2023-01-23T23:43:54.786Z,9.40
2023-01-23T23:46:23.079Z,8.40
2023-01-23T23:48:51.453Z,8.18
2023-01-23T23:51:22.928Z,9.38
2023-01-23T23:53:51.475Z,7.90
2023-01-23T23:56:23.059Z,7.03
2023-01-23T23:58:51.609Z,8.40
